KABR

Aberdeen Regional Airport

Aberdeen, South Dakota, USA
KABR 221334Z 2214/2312 18017G27KT P6SM SKC FM222100 19011KT P6SM SCT250 FM230200 08007KT P6SM SKC
Issued Valid From Valid To
Sep-22 @ 13:34 UTC
(an hour ago)
Sep-22 @ 14:00 UTC
(an hour ago)
Sep-23 @ 12:00 UTC
(in 21 hours)
to
to
to
KABR 221334Z 2214/2312 18017G27KT P6SM SKC FM222100 19011KT P6SM SCT250 FM230200 08007KT P6SM SKC
Issued Sep-22 @ 13:34 UTC
(an hour ago)
Valid From Sep-22 @ 14:00 UTC
(an hour ago)
Valid To Sep-23 @ 12:00 UTC
(in 21 hours)
-
-
-